createdAt,value
2018-03-01T00:00:45.009Z,1010.81
2018-03-01T00:01:45.015Z,1010.78
2018-03-01T00:02:45.001Z,1010.79
2018-03-01T00:03:44.998Z,1010.82
2018-03-01T00:04:44.939Z,1010.75
2018-03-01T00:05:44.925Z,1010.75
2018-03-01T00:06:44.898Z,1010.68
2018-03-01T00:07:44.880Z,1010.79
2018-03-01T00:08:44.863Z,1010.74
2018-03-01T00:09:44.848Z,1010.78
2018-03-01T00:10:44.823Z,1010.78
2018-03-01T00:11:44.803Z,1010.64
2018-03-01T00:12:44.788Z,1010.76
2018-03-01T00:13:44.766Z,1010.69
2018-03-01T00:14:44.743Z,1010.63
2018-03-01T00:15:44.739Z,1010.67
2018-03-01T00:16:44.705Z,1010.67
2018-03-01T00:17:44.684Z,1010.63
2018-03-01T00:18:44.672Z,1010.70
2018-03-01T00:19:44.646Z,1010.61
2018-03-01T00:20:44.628Z,1010.59
2018-03-01T00:21:44.613Z,1010.65
2018-03-01T00:22:44.602Z,1010.59
2018-03-01T00:23:44.568Z,1010.66
2018-03-01T00:24:44.548Z,1010.58
2018-03-01T00:25:44.679Z,1010.57
2018-03-01T00:26:44.516Z,1010.60
2018-03-01T00:27:44.491Z,1010.60
2018-03-01T00:28:44.471Z,1010.64
2018-03-01T00:29:44.452Z,1010.59
2018-03-01T00:30:44.439Z,1010.56
2018-03-01T00:31:44.421Z,1010.77
2018-03-01T00:32:44.395Z,1010.66
2018-03-01T00:33:44.380Z,1010.59
2018-03-01T00:34:44.360Z,1010.64
2018-03-01T00:35:44.344Z,1010.64
2018-03-01T00:36:44.322Z,1010.66
2018-03-01T00:37:44.297Z,1010.59
2018-03-01T00:38:44.280Z,1010.51
2018-03-01T00:39:44.264Z,1010.59
2018-03-01T00:40:44.238Z,1010.61
2018-03-01T00:41:44.220Z,1010.44
2018-03-01T00:42:44.199Z,1010.50
2018-03-01T00:43:44.280Z,1010.50
2018-03-01T00:44:44.161Z,1010.48
2018-03-01T00:45:44.144Z,1010.42
2018-03-01T00:46:44.121Z,1010.36
2018-03-01T00:47:44.103Z,1010.42
2018-03-01T00:48:44.081Z,1010.41
2018-03-01T00:49:44.063Z,1010.42
2018-03-01T00:50:44.049Z,1010.02
2018-03-01T00:51:44.023Z,1010.38
2018-03-01T00:52:44.004Z,1010.29
2018-03-01T00:53:43.985Z,1010.28
2018-03-01T00:54:43.971Z,1010.32
2018-03-01T00:55:43.946Z,1010.27
2018-03-01T00:56:43.929Z,1010.21
2018-03-01T00:57:43.914Z,1010.25
2018-03-01T00:58:43.893Z,1010.22
2018-03-01T00:59:43.919Z,1010.12
2018-03-01T01:00:43.848Z,1010.03
2018-03-01T01:01:43.931Z,1010.04
2018-03-01T01:02:43.810Z,1010.20
2018-03-01T01:03:43.796Z,1010.17
2018-03-01T01:04:43.769Z,1010.01
2018-03-01T01:05:43.750Z,1010.19
2018-03-01T01:06:43.738Z,1010.14
2018-03-01T01:07:43.718Z,1010.16
2018-03-01T01:08:43.692Z,1010.10
2018-03-01T01:09:43.672Z,1010.18
2018-03-01T01:10:43.660Z,1010.19
2018-03-01T01:11:43.636Z,1010.16
2018-03-01T01:12:43.619Z,1010.14
2018-03-01T01:13:43.599Z,1010.16
2018-03-01T01:14:43.577Z,1010.04
2018-03-01T01:15:43.558Z,1010.08
2018-03-01T01:16:43.542Z,1010.05
2018-03-01T01:17:43.517Z,1010.04
2018-03-01T01:18:43.503Z,1010.09
2018-03-01T01:19:43.500Z,1010.15
2018-03-01T01:20:43.475Z,1010.01
2018-03-01T01:21:43.448Z,1010.12
2018-03-01T01:22:43.477Z,1010.06
2018-03-01T01:23:43.409Z,1010.11
2018-03-01T01:24:43.383Z,1010.05
2018-03-01T01:25:43.362Z,1010.09
2018-03-01T01:26:43.344Z,1010.02
2018-03-01T01:27:43.330Z,1010.00
2018-03-01T01:28:43.303Z,1009.96
2018-03-01T01:29:43.284Z,1010.00
2018-03-01T01:30:43.274Z,1010.00
2018-03-01T01:31:43.245Z,1009.98
2018-03-01T01:32:43.227Z,1010.03
2018-03-01T01:33:43.213Z,1009.97
2018-03-01T01:34:43.193Z,1009.85
2018-03-01T01:35:43.174Z,1009.93
2018-03-01T01:36:43.151Z,1009.90
2018-03-01T01:37:43.240Z,1009.81
2018-03-01T01:38:43.110Z,1009.87
2018-03-01T01:39:43.092Z,1009.87
2018-03-01T01:40:43.087Z,1009.92
2018-03-01T01:41:43.060Z,1009.88
2018-03-01T01:42:43.034Z,1009.85
2018-03-01T01:43:43.016Z,1009.80
2018-03-01T01:44:43.001Z,1009.87
2018-03-01T01:45:42.976Z,1009.87
2018-03-01T01:46:42.956Z,1009.83
2018-03-01T01:47:42.957Z,1009.81
2018-03-01T01:48:42.925Z,1009.77
2018-03-01T01:49:42.909Z,1009.76
2018-03-01T01:50:42.892Z,1009.81
2018-03-01T01:51:42.856Z,1009.73
2018-03-01T01:52:42.847Z,1009.72
2018-03-01T01:53:42.823Z,1009.69
2018-03-01T01:54:42.801Z,1009.74
2018-03-01T01:55:42.782Z,1009.68
2018-03-01T01:56:42.780Z,1009.63
2018-03-01T01:57:42.750Z,1009.68
2018-03-01T01:58:42.731Z,1009.58
2018-03-01T01:59:42.704Z,1009.69
2018-03-01T02:00:42.681Z,1009.70
2018-03-01T02:01:42.673Z,1009.61
2018-03-01T02:02:42.651Z,1009.72
2018-03-01T02:03:42.627Z,1009.62
2018-03-01T02:04:42.608Z,1009.75
2018-03-01T02:05:42.582Z,1009.63
2018-03-01T02:06:42.565Z,1009.62
2018-03-01T02:07:42.546Z,1009.65
2018-03-01T02:08:42.529Z,1009.54
2018-03-01T02:09:42.535Z,1009.48
2018-03-01T02:10:42.498Z,1009.55
2018-03-01T02:11:42.491Z,1009.57
2018-03-01T02:12:42.463Z,1009.51
2018-03-01T02:13:42.541Z,1009.48
2018-03-01T02:14:42.413Z,1009.38
2018-03-01T02:15:42.402Z,1009.38
2018-03-01T02:16:42.368Z,1009.40
2018-03-01T02:17:42.357Z,1009.33
2018-03-01T02:18:42.340Z,1009.26
2018-03-01T02:19:42.316Z,1009.27
2018-03-01T02:20:42.297Z,1009.10
2018-03-01T02:21:42.272Z,1009.23
2018-03-01T02:22:42.262Z,1009.27
2018-03-01T02:23:42.240Z,1009.29
2018-03-01T02:24:42.215Z,1008.98
2018-03-01T02:25:42.209Z,1009.14
2018-03-01T02:26:42.174Z,1009.24
2018-03-01T02:27:42.163Z,1009.13
2018-03-01T02:28:42.139Z,1009.11
2018-03-01T02:29:42.119Z,1009.13
2018-03-01T02:30:42.107Z,1009.03
2018-03-01T02:31:42.107Z,1009.15
2018-03-01T02:32:42.068Z,1009.07
2018-03-01T02:33:42.038Z,1008.97
2018-03-01T02:34:42.034Z,1009.15
2018-03-01T02:35:42.009Z,1009.11
2018-03-01T02:36:41.978Z,1009.08
2018-03-01T02:37:41.981Z,1009.00
2018-03-01T02:38:41.944Z,1008.96
2018-03-01T02:39:41.929Z,1009.02
2018-03-01T02:40:41.906Z,1009.12
2018-03-01T02:41:41.887Z,1008.97
2018-03-01T02:42:41.885Z,1009.04
2018-03-01T02:43:41.843Z,1009.02
2018-03-01T02:44:41.826Z,1008.94
2018-03-01T02:45:41.821Z,1008.91
2018-03-01T02:46:41.789Z,1008.90
2018-03-01T02:47:41.767Z,1008.95
2018-03-01T02:48:41.742Z,1008.91
2018-03-01T02:49:41.824Z,1008.96
2018-03-01T02:50:41.710Z,1008.85
2018-03-01T02:51:41.707Z,1008.89
2018-03-01T02:52:41.679Z,1008.83
2018-03-01T02:53:41.647Z,1008.80
2018-03-01T02:54:41.647Z,1008.84
2018-03-01T02:55:41.609Z,1008.76
2018-03-01T02:56:41.595Z,1008.63
2018-03-01T02:57:41.585Z,1008.68
2018-03-01T02:58:41.554Z,1008.79
2018-03-01T02:59:41.531Z,1008.77
2018-03-01T03:00:41.521Z,1008.85
2018-03-01T03:01:41.500Z,1008.84
2018-03-01T03:02:41.502Z,1008.81
2018-03-01T03:03:41.457Z,1008.81
2018-03-01T03:04:41.438Z,1008.65
2018-03-01T03:05:41.424Z,1008.73
2018-03-01T03:06:41.398Z,1008.73
2018-03-01T03:07:41.370Z,1008.70
2018-03-01T03:08:41.354Z,1008.68
2018-03-01T03:09:41.339Z,1008.63
2018-03-01T03:10:41.320Z,1008.60
2018-03-01T03:11:41.302Z,1008.70
2018-03-01T03:12:41.274Z,1008.65
2018-03-01T03:13:41.250Z,1008.70
2018-03-01T03:14:41.235Z,1008.67
2018-03-01T03:15:41.230Z,1008.55
2018-03-01T03:16:41.192Z,1008.51
2018-03-01T03:17:41.180Z,1008.48
2018-03-01T03:18:41.159Z,1008.59
2018-03-01T03:19:41.132Z,1008.44
2018-03-01T03:20:41.123Z,1008.55
2018-03-01T03:21:41.103Z,1008.56
2018-03-01T03:22:41.084Z,1008.52
2018-03-01T03:23:41.079Z,1008.65
2018-03-01T03:24:41.043Z,1008.38
2018-03-01T03:25:41.070Z,1008.52
2018-03-01T03:26:40.997Z,1008.50
2018-03-01T03:27:40.985Z,1008.52
2018-03-01T03:28:40.957Z,1008.49
2018-03-01T03:29:40.940Z,1008.54
2018-03-01T03:30:40.922Z,1008.42
2018-03-01T03:31:40.918Z,1008.33
2018-03-01T03:32:40.890Z,1008.39
2018-03-01T03:33:40.864Z,1008.44
2018-03-01T03:34:40.853Z,1008.33
2018-03-01T03:35:40.835Z,1008.36
2018-03-01T03:36:40.801Z,1008.20
2018-03-01T03:37:40.782Z,1008.43
2018-03-01T03:38:40.758Z,1008.28
2018-03-01T03:39:40.738Z,1008.25
2018-03-01T03:40:40.722Z,1008.33
2018-03-01T03:41:40.702Z,1008.30
2018-03-01T03:42:40.691Z,1008.31
2018-03-01T03:43:40.768Z,1008.14
2018-03-01T03:44:40.650Z,1008.28
2018-03-01T03:45:40.630Z,1008.30
2018-03-01T03:46:40.629Z,1008.39
2018-03-01T03:47:40.587Z,1008.12
2018-03-01T03:48:40.568Z,1008.26
2018-03-01T03:49:40.569Z,1008.23
2018-03-01T03:50:40.520Z,1008.34
2018-03-01T03:51:40.500Z,1008.23
2018-03-01T03:52:40.485Z,1008.18
2018-03-01T03:53:40.473Z,1008.24
2018-03-01T03:54:40.445Z,1008.34
2018-03-01T03:55:40.429Z,1008.33
2018-03-01T03:56:40.409Z,1008.31
2018-03-01T03:57:40.388Z,1008.42
2018-03-01T03:58:40.369Z,1008.30
2018-03-01T03:59:40.357Z,1008.15
2018-03-01T04:00:40.325Z,1008.22
2018-03-01T04:01:40.422Z,1008.12
2018-03-01T04:02:40.298Z,1008.18
2018-03-01T04:03:40.270Z,1008.15
2018-03-01T04:04:40.247Z,1008.30
2018-03-01T04:05:40.226Z,1008.29
2018-03-01T04:06:40.205Z,1008.24
2018-03-01T04:07:40.188Z,1008.27
2018-03-01T04:08:40.178Z,1008.21
2018-03-01T04:09:40.159Z,1008.24
2018-03-01T04:10:40.137Z,1008.28
2018-03-01T04:11:40.110Z,1008.23
2018-03-01T04:12:40.094Z,1008.19
2018-03-01T04:13:40.079Z,1008.14
2018-03-01T04:14:40.060Z,1008.18
2018-03-01T04:15:40.035Z,1008.13
2018-03-01T04:16:40.010Z,1008.06
2018-03-01T04:17:39.991Z,1008.05
2018-03-01T04:18:39.981Z,1008.11
2018-03-01T04:19:39.955Z,1007.86
2018-03-01T04:20:39.942Z,1008.13
2018-03-01T04:21:39.912Z,1007.98
2018-03-01T04:22:39.895Z,1007.89
2018-03-01T04:23:39.876Z,1008.04
2018-03-01T04:24:39.861Z,1008.08
2018-03-01T04:25:39.845Z,1008.05
2018-03-01T04:26:39.822Z,1008.12
2018-03-01T04:27:39.796Z,1007.99
2018-03-01T04:28:39.785Z,1008.13
2018-03-01T04:29:39.760Z,1008.19
2018-03-01T04:30:39.750Z,1008.15
2018-03-01T04:31:39.729Z,1008.15
2018-03-01T04:32:39.700Z,1008.14
2018-03-01T04:33:39.681Z,1008.14
2018-03-01T04:34:39.687Z,1008.12
2018-03-01T04:35:39.653Z,1008.07
2018-03-01T04:36:39.628Z,1008.03
2018-03-01T04:37:39.615Z,1008.02
2018-03-01T04:38:39.590Z,1008.05
2018-03-01T04:39:39.561Z,1008.05
2018-03-01T04:40:39.554Z,1008.02
2018-03-01T04:41:39.527Z,1008.07
2018-03-01T04:42:39.505Z,1008.13
2018-03-01T04:43:39.485Z,1008.08
2018-03-01T04:44:39.474Z,1008.04
2018-03-01T04:45:39.451Z,1008.10
2018-03-01T04:46:39.429Z,1008.23
2018-03-01T04:47:39.408Z,1008.07
2018-03-01T04:48:39.393Z,1008.10
2018-03-01T04:49:39.367Z,1008.12
2018-03-01T04:50:39.359Z,1008.08
2018-03-01T04:51:39.337Z,1008.03
2018-03-01T04:52:39.306Z,1008.15
2018-03-01T04:53:39.288Z,1008.17
2018-03-01T04:54:39.276Z,1008.20
2018-03-01T04:55:39.251Z,1008.28
2018-03-01T04:56:39.234Z,1008.22
2018-03-01T04:57:39.214Z,1008.03
2018-03-01T04:58:39.200Z,1008.15
2018-03-01T04:59:39.177Z,1008.07
2018-03-01T05:00:39.163Z,1008.11
2018-03-01T05:01:39.136Z,1008.02
2018-03-01T05:02:39.163Z,1008.04
2018-03-01T05:03:39.100Z,1007.87
2018-03-01T05:04:39.079Z,1007.85
2018-03-01T05:05:39.055Z,1007.87
2018-03-01T05:06:39.042Z,1007.70
2018-03-01T05:07:39.027Z,1007.72
2018-03-01T05:08:39.009Z,1007.75
2018-03-01T05:09:38.983Z,1007.65
2018-03-01T05:10:38.962Z,1007.61
2018-03-01T05:11:38.942Z,1007.58
2018-03-01T05:12:38.917Z,1007.50
2018-03-01T05:13:39.155Z,1007.51
2018-03-01T05:14:38.885Z,1007.44
2018-03-01T05:15:38.866Z,1007.31
2018-03-01T05:16:38.849Z,1007.48
2018-03-01T05:17:38.827Z,1007.46
2018-03-01T05:18:38.801Z,1007.44
2018-03-01T05:19:38.791Z,1007.53
2018-03-01T05:20:38.766Z,1007.40
2018-03-01T05:21:38.746Z,1007.54
2018-03-01T05:22:38.736Z,1007.58
2018-03-01T05:23:38.722Z,1007.53
2018-03-01T05:24:38.695Z,1007.51
2018-03-01T05:25:38.679Z,1007.51
2018-03-01T05:26:38.673Z,1007.51
2018-03-01T05:27:38.633Z,1007.55
2018-03-01T05:28:38.629Z,1007.53
2018-03-01T05:29:38.590Z,1007.47
2018-03-01T05:30:38.572Z,1007.37
2018-03-01T05:31:38.677Z,1007.51
2018-03-01T05:32:38.530Z,1007.39
2018-03-01T05:33:38.511Z,1007.45
2018-03-01T05:34:38.499Z,1007.46
2018-03-01T05:35:38.474Z,1007.40
2018-03-01T05:36:38.464Z,1007.37
2018-03-01T05:37:38.440Z,1007.38
2018-03-01T05:38:38.416Z,1007.41
2018-03-01T05:39:38.398Z,1007.38
2018-03-01T05:40:38.390Z,1007.32
2018-03-01T05:41:38.369Z,1007.30
2018-03-01T05:42:38.340Z,1007.27
2018-03-01T05:43:38.323Z,1007.19
2018-03-01T05:44:38.301Z,1007.27
2018-03-01T05:45:38.284Z,1007.31
2018-03-01T05:46:38.265Z,1007.35
2018-03-01T05:47:38.274Z,1007.37
2018-03-01T05:48:38.234Z,1007.41
2018-03-01T05:49:38.209Z,1007.30
2018-03-01T05:50:38.192Z,1007.36
2018-03-01T05:51:38.162Z,1007.33
2018-03-01T05:52:38.148Z,1007.36
2018-03-01T05:53:38.129Z,1007.44
2018-03-01T05:54:38.106Z,1007.42
2018-03-01T05:55:38.084Z,1007.43
2018-03-01T05:56:38.079Z,1007.50
2018-03-01T05:57:38.051Z,1007.49
2018-03-01T05:58:38.037Z,1007.49
2018-03-01T05:59:38.014Z,1007.40
2018-03-01T06:00:37.991Z,1007.53
2018-03-01T06:01:37.971Z,1007.50
2018-03-01T06:02:37.997Z,1007.41
2018-03-01T06:03:37.935Z,1007.49
2018-03-01T06:04:37.912Z,1007.51
2018-03-01T06:05:37.899Z,1007.57
2018-03-01T06:06:37.875Z,1007.52
2018-03-01T06:07:37.862Z,1007.61
2018-03-01T06:08:37.846Z,1007.65
2018-03-01T06:09:37.829Z,1007.70
2018-03-01T06:10:37.798Z,1007.68
2018-03-01T06:11:37.780Z,1007.69
2018-03-01T06:12:37.784Z,1007.69
2018-03-01T06:13:37.742Z,1007.69
2018-03-01T06:14:37.726Z,1007.73
2018-03-01T06:15:37.718Z,1007.42
2018-03-01T06:16:37.686Z,1007.74
2018-03-01T06:17:37.669Z,1007.67
2018-03-01T06:18:37.651Z,1007.75
2018-03-01T06:19:37.877Z,1007.71
2018-03-01T06:20:37.605Z,1007.74
2018-03-01T06:21:37.585Z,1007.73
2018-03-01T06:22:37.572Z,1007.83
2018-03-01T06:23:37.556Z,1007.73
2018-03-01T06:24:37.532Z,1007.81
2018-03-01T06:25:37.529Z,1007.83
2018-03-01T06:26:37.495Z,1007.86
2018-03-01T06:27:37.471Z,1007.78
2018-03-01T06:28:37.455Z,1007.84
2018-03-01T06:29:37.444Z,1007.77
2018-03-01T06:30:37.425Z,1007.80
2018-03-01T06:31:37.403Z,1007.80
2018-03-01T06:32:37.372Z,1007.78
2018-03-01T06:33:37.355Z,1007.89
2018-03-01T06:34:37.347Z,1007.72
2018-03-01T06:35:37.323Z,1007.84
2018-03-01T06:36:37.299Z,1007.92
2018-03-01T06:37:37.287Z,1007.80
2018-03-01T06:38:37.267Z,1007.78
2018-03-01T06:39:37.249Z,1007.66
2018-03-01T06:40:37.226Z,1007.60
2018-03-01T06:41:37.205Z,1007.58
2018-03-01T06:42:37.194Z,1007.66
2018-03-01T06:43:37.161Z,1007.65
2018-03-01T06:44:37.146Z,1007.61
2018-03-01T06:45:37.128Z,1007.58
2018-03-01T06:46:37.111Z,1007.56
2018-03-01T06:47:37.091Z,1007.52
2018-03-01T06:48:37.078Z,1007.56
2018-03-01T06:49:37.048Z,1007.53
2018-03-01T06:50:37.032Z,1007.51
2018-03-01T06:51:37.014Z,1007.46
2018-03-01T06:52:36.989Z,1007.42
2018-03-01T06:53:36.969Z,1007.40
2018-03-01T06:54:36.959Z,1007.42
2018-03-01T06:55:36.934Z,1007.33
2018-03-01T06:56:36.925Z,1007.42
2018-03-01T06:57:36.900Z,1007.26
2018-03-01T06:58:36.878Z,1007.29
2018-03-01T06:59:36.858Z,1007.26
2018-03-01T07:00:36.843Z,1007.20
2018-03-01T07:01:36.829Z,1007.23
2018-03-01T07:02:36.803Z,1007.11
2018-03-01T07:03:36.778Z,1007.15
2018-03-01T07:04:36.762Z,1007.13
2018-03-01T07:05:36.738Z,1007.17
2018-03-01T07:06:36.719Z,1007.08
2018-03-01T07:07:36.702Z,1007.11
2018-03-01T07:08:36.679Z,1007.09
2018-03-01T07:09:36.665Z,1007.07
2018-03-01T07:10:36.644Z,1007.09
2018-03-01T07:11:36.642Z,1007.12
2018-03-01T07:12:36.617Z,1006.97
2018-03-01T07:13:36.592Z,1007.12
2018-03-01T07:19:47.312Z,1006.91
2018-03-01T07:20:47.289Z,1006.85
2018-03-01T07:21:47.272Z,1006.92
2018-03-01T07:22:47.246Z,1006.90
2018-03-01T07:23:47.232Z,1006.84
2018-03-01T07:24:47.219Z,1006.89
2018-03-01T07:25:47.294Z,1006.93
2018-03-01T07:26:47.168Z,1006.92
2018-03-01T07:27:47.161Z,1006.94
2018-03-01T07:28:47.134Z,1006.92
2018-03-01T07:29:47.124Z,1007.09
2018-03-01T07:30:47.100Z,1007.07
2018-03-01T07:31:47.079Z,1007.08
2018-03-01T07:32:47.059Z,1007.21
2018-03-01T07:33:47.036Z,1007.08
2018-03-01T07:34:47.022Z,1006.85
2018-03-01T07:35:47.003Z,1007.04
2018-03-01T07:36:46.981Z,1006.97
2018-03-01T07:37:46.965Z,1007.04
2018-03-01T07:38:46.946Z,1006.98
2018-03-01T07:39:46.920Z,1007.00
2018-03-01T07:40:46.913Z,1006.99
2018-03-01T07:41:46.886Z,1007.00
2018-03-01T07:42:46.876Z,1007.04
2018-03-01T07:43:46.952Z,1007.00
2018-03-01T07:44:46.831Z,1006.96
2018-03-01T07:45:46.819Z,1006.97
2018-03-01T07:46:46.792Z,1006.94
2018-03-01T07:47:46.773Z,1006.95
2018-03-01T07:48:46.758Z,1006.93
2018-03-01T07:49:46.740Z,1006.78
2018-03-01T07:50:46.716Z,1006.83
2018-03-01T07:51:46.701Z,1006.79
2018-03-01T07:52:46.677Z,1006.75
2018-03-01T07:53:46.657Z,1006.87
2018-03-01T07:54:46.642Z,1006.84
2018-03-01T07:55:46.632Z,1006.89
2018-03-01T07:56:46.609Z,1006.65
2018-03-01T07:57:46.596Z,1006.50
2018-03-01T07:58:46.576Z,1006.87
2018-03-01T07:59:46.553Z,1006.84
2018-03-01T08:00:46.532Z,1006.82
2018-03-01T08:01:46.519Z,1006.75
2018-03-01T08:02:46.496Z,1006.85
2018-03-01T08:03:46.487Z,1006.90
2018-03-01T08:04:46.468Z,1006.89
2018-03-01T08:05:46.437Z,1006.79
2018-03-01T08:06:46.423Z,1006.86
2018-03-01T08:07:46.405Z,1006.79
2018-03-01T08:08:46.388Z,1006.82
2018-03-01T08:09:46.371Z,1006.68
2018-03-01T08:10:46.357Z,1006.80
2018-03-01T08:11:46.327Z,1006.83
2018-03-01T08:12:46.311Z,1006.75
2018-03-01T08:13:46.293Z,1006.72
2018-03-01T08:14:46.273Z,1006.79
2018-03-01T08:15:46.256Z,1006.82
2018-03-01T08:16:46.288Z,1006.97
2018-03-01T08:17:46.230Z,1006.88
2018-03-01T08:18:46.204Z,1006.80
2018-03-01T08:19:46.187Z,1006.90
2018-03-01T08:20:46.163Z,1006.72
2018-03-01T08:21:46.143Z,1006.85
2018-03-01T08:22:46.133Z,1006.76
2018-03-01T08:23:46.114Z,1006.87
2018-03-01T08:24:46.097Z,1006.77
2018-03-01T08:25:46.083Z,1006.71
2018-03-01T08:26:46.066Z,1006.58
2018-03-01T08:27:46.038Z,1006.77
2018-03-01T08:28:46.031Z,1006.65
2018-03-01T08:29:46.005Z,1006.66
2018-03-01T08:30:45.984Z,1006.60
2018-03-01T08:31:45.973Z,1006.74
2018-03-01T08:32:45.960Z,1006.71
2018-03-01T08:33:45.935Z,1006.68
2018-03-01T08:34:45.927Z,1006.57
2018-03-01T08:35:45.902Z,1006.55
2018-03-01T08:36:45.887Z,1006.56
2018-03-01T08:37:45.864Z,1006.57
2018-03-01T08:38:45.843Z,1006.51
2018-03-01T08:39:45.827Z,1006.67
2018-03-01T08:40:45.819Z,1006.68
2018-03-01T08:41:45.789Z,1006.56
2018-03-01T08:42:45.774Z,1006.57
2018-03-01T08:43:45.755Z,1006.59
2018-03-01T08:44:45.746Z,1006.66
2018-03-01T08:45:45.731Z,1006.60
2018-03-01T08:46:45.708Z,1006.52
2018-03-01T08:47:45.685Z,1006.71
2018-03-01T08:48:45.687Z,1006.61
2018-03-01T08:49:45.654Z,1006.69
2018-03-01T08:50:45.632Z,1006.52
2018-03-01T08:51:45.616Z,1006.46
2018-03-01T08:52:45.600Z,1006.47
2018-03-01T08:53:45.590Z,1006.34
2018-03-01T08:54:45.566Z,1006.45
2018-03-01T08:55:45.699Z,1006.52
2018-03-01T08:56:45.539Z,1006.47
2018-03-01T08:57:45.514Z,1006.24
2018-03-01T08:58:45.503Z,1006.22
2018-03-01T08:59:45.486Z,1006.24
2018-03-01T09:00:45.463Z,1006.24
2018-03-01T09:01:45.453Z,1006.35
2018-03-01T09:02:45.431Z,1006.25
2018-03-01T09:03:45.423Z,1006.06
2018-03-01T09:04:45.409Z,1006.28
2018-03-01T09:05:45.383Z,1006.21
2018-03-01T09:06:45.360Z,1006.00
2018-03-01T09:07:45.352Z,1005.78
2018-03-01T09:08:45.342Z,1006.04
2018-03-01T09:09:45.310Z,1006.08
2018-03-01T09:10:45.293Z,1006.13
2018-03-01T09:11:45.277Z,1005.97
2018-03-01T09:12:45.266Z,1005.88
2018-03-01T09:13:45.241Z,1005.97
2018-03-01T09:14:45.238Z,1006.20
2018-03-01T09:15:45.210Z,1006.01
2018-03-01T09:16:45.197Z,1006.05
2018-03-01T09:17:45.187Z,1005.85
2018-03-01T09:18:45.173Z,1005.82
2018-03-01T09:19:45.141Z,1005.87
2018-03-01T09:20:45.131Z,1005.92
2018-03-01T09:21:45.115Z,1005.65
2018-03-01T09:22:45.096Z,1005.90
2018-03-01T09:23:45.074Z,1005.72
2018-03-01T09:24:45.118Z,1005.96
2018-03-01T09:25:45.041Z,1005.90
2018-03-01T09:26:45.026Z,1005.96
2018-03-01T09:27:45.006Z,1005.82
2018-03-01T09:28:44.995Z,1006.01
2018-03-01T09:29:44.984Z,1005.84
2018-03-01T09:30:44.960Z,1005.80
2018-03-01T09:31:44.936Z,1005.82
2018-03-01T09:32:44.930Z,1005.88
2018-03-01T09:33:44.903Z,1005.83
2018-03-01T09:34:44.887Z,1005.74
2018-03-01T09:35:44.871Z,1005.82
2018-03-01T09:36:44.854Z,1005.80
2018-03-01T09:37:44.842Z,1005.83
2018-03-01T09:38:44.819Z,1005.32
2018-03-01T09:39:44.812Z,1005.83
2018-03-01T09:40:44.792Z,1005.75
2018-03-01T09:41:44.768Z,1005.58
2018-03-01T09:42:44.751Z,1005.68
2018-03-01T09:43:44.742Z,1005.71
2018-03-01T09:44:44.762Z,1005.66
2018-03-01T09:45:44.708Z,1005.58
2018-03-01T09:46:44.686Z,1005.66
2018-03-01T09:47:44.673Z,1005.63
2018-03-01T09:48:44.651Z,1005.62
2018-03-01T09:49:44.634Z,1005.62
2018-03-01T09:50:44.621Z,1005.51
2018-03-01T09:51:44.600Z,1005.53
2018-03-01T09:52:44.583Z,1005.50
2018-03-01T09:53:44.571Z,1005.29
2018-03-01T09:54:44.551Z,1005.48
2018-03-01T09:55:44.684Z,1005.36
2018-03-01T09:56:44.518Z,1005.30
2018-03-01T09:57:44.501Z,1005.43
2018-03-01T09:58:44.486Z,1005.48
2018-03-01T09:59:44.466Z,1005.59
2018-03-01T10:00:44.451Z,1005.40
2018-03-01T10:01:44.683Z,1005.59
2018-03-01T10:02:44.413Z,1005.73
2018-03-01T10:03:44.398Z,1005.48
2018-03-01T10:04:44.390Z,1005.57
2018-03-01T10:05:44.365Z,1005.54
2018-03-01T10:06:44.362Z,1005.41
2018-03-01T10:07:44.586Z,1005.49
2018-03-01T10:08:44.319Z,1005.40
2018-03-01T10:09:44.303Z,1005.33
2018-03-01T10:10:44.282Z,1005.07
2018-03-01T10:11:44.265Z,1005.20
2018-03-01T10:12:44.251Z,1005.24
2018-03-01T10:13:44.231Z,1005.31
2018-03-01T10:14:44.221Z,1005.31
2018-03-01T10:15:44.198Z,1005.28
2018-03-01T10:16:44.189Z,1005.37
2018-03-01T10:17:44.167Z,1005.35
2018-03-01T10:18:44.150Z,1005.36
2018-03-01T10:19:44.142Z,1005.30
2018-03-01T10:20:44.125Z,1005.33
2018-03-01T10:21:44.100Z,1005.15
2018-03-01T10:22:44.096Z,1005.14
2018-03-01T10:23:44.068Z,1005.21
2018-03-01T10:24:44.056Z,1005.19
2018-03-01T10:25:44.040Z,1005.16
2018-03-01T10:26:44.025Z,1005.29
2018-03-01T10:27:44.005Z,1005.16
2018-03-01T10:28:43.993Z,1005.11
2018-03-01T10:29:43.988Z,1005.16
2018-03-01T10:30:43.985Z,1005.09
2018-03-01T10:31:43.938Z,1005.15
2018-03-01T10:32:43.923Z,1005.06
2018-03-01T10:33:43.910Z,1004.80
2018-03-01T10:34:43.899Z,1004.96
2018-03-01T10:35:43.876Z,1005.14
2018-03-01T10:36:43.861Z,1005.07
2018-03-01T10:37:43.843Z,1004.86
2018-03-01T10:38:43.832Z,1004.93
2018-03-01T10:39:43.814Z,1004.93
2018-03-01T10:40:43.801Z,1004.88
2018-03-01T10:41:43.777Z,1004.89
2018-03-01T10:42:43.763Z,1004.89
2018-03-01T10:43:43.749Z,1004.84
2018-03-01T10:44:43.745Z,1004.82
2018-03-01T10:45:43.714Z,1004.82
2018-03-01T10:46:43.699Z,1004.51
2018-03-01T10:47:43.695Z,1004.83
2018-03-01T10:48:43.670Z,1004.78
2018-03-01T10:49:43.650Z,1004.78
2018-03-01T10:50:43.632Z,1004.73
2018-03-01T10:51:43.634Z,1004.68
2018-03-01T10:52:43.601Z,1004.69
2018-03-01T10:53:43.606Z,1004.78
2018-03-01T10:54:43.572Z,1004.61
2018-03-01T10:55:43.808Z,1004.75
2018-03-01T10:56:43.549Z,1004.75
2018-03-01T10:57:43.535Z,1004.52
2018-03-01T10:58:43.512Z,1004.57
2018-03-01T10:59:43.488Z,1004.62
2018-03-01T11:00:43.472Z,1004.60
2018-03-01T11:01:43.722Z,1004.55
2018-03-01T11:02:43.440Z,1004.33
2018-03-01T11:03:43.431Z,1004.58
2018-03-01T11:04:43.409Z,1004.54
2018-03-01T11:05:43.393Z,1004.35
2018-03-01T11:06:43.379Z,1004.39
2018-03-01T11:07:43.615Z,1004.41
2018-03-01T11:08:43.354Z,1004.35
2018-03-01T11:09:43.331Z,1004.23
2018-03-01T11:10:43.349Z,1004.23
2018-03-01T11:11:43.306Z,1004.09
2018-03-01T11:12:43.282Z,1004.34
2018-03-01T11:13:43.532Z,1004.10
2018-03-01T11:14:43.259Z,1004.26
2018-03-01T11:15:43.241Z,1004.30
2018-03-01T11:16:43.226Z,1004.21
2018-03-01T11:17:43.208Z,1004.22
2018-03-01T11:18:43.190Z,1003.95
2018-03-01T11:19:43.175Z,1004.12
2018-03-01T11:20:43.161Z,1004.20
2018-03-01T11:21:43.143Z,1004.20
2018-03-01T11:22:43.135Z,1004.24
2018-03-01T11:23:43.115Z,1004.21
2018-03-01T11:24:43.108Z,1004.26
2018-03-01T11:25:43.092Z,1004.19
2018-03-01T11:26:43.063Z,1004.20
2018-03-01T11:27:43.050Z,1004.18
2018-03-01T11:28:43.053Z,1004.06
2018-03-01T11:29:43.035Z,1004.05
2018-03-01T11:30:43.000Z,1004.16
2018-03-01T11:31:42.988Z,1004.09
2018-03-01T11:32:42.970Z,1004.02
2018-03-01T11:33:42.963Z,1004.15
2018-03-01T11:34:42.945Z,1004.17
2018-03-01T11:35:42.927Z,1004.04
2018-03-01T11:36:42.922Z,1003.94
2018-03-01T11:37:42.897Z,1004.09
2018-03-01T11:38:42.888Z,1004.23
2018-03-01T11:39:42.870Z,1004.07
2018-03-01T11:40:42.854Z,1004.08
2018-03-01T11:41:42.839Z,1004.20
2018-03-01T11:42:42.861Z,1004.10
2018-03-01T11:43:42.822Z,1004.12
2018-03-01T11:44:42.811Z,1004.00
2018-03-01T11:45:42.772Z,1004.09
2018-03-01T11:46:42.766Z,1004.24
2018-03-01T11:47:42.749Z,1004.15
2018-03-01T11:48:42.745Z,1004.09
2018-03-01T11:49:42.714Z,1004.02
2018-03-01T11:50:42.709Z,1004.05
2018-03-01T11:51:42.692Z,1004.05
2018-03-01T11:52:42.669Z,1004.02
2018-03-01T11:53:42.653Z,1003.89
2018-03-01T11:54:42.646Z,1003.84
2018-03-01T11:55:42.636Z,1003.93
2018-03-01T11:56:42.611Z,1003.89
2018-03-01T11:57:42.591Z,1003.84
2018-03-01T11:58:42.579Z,1003.72
2018-03-01T11:59:42.579Z,1003.82
2018-03-01T12:00:42.552Z,1003.77
2018-03-01T12:01:42.533Z,1003.68
2018-03-01T12:02:42.524Z,1003.78
2018-03-01T12:03:42.502Z,1003.66
2018-03-01T12:04:42.489Z,1003.61
2018-03-01T12:05:42.482Z,1003.61
2018-03-01T12:06:42.467Z,1003.54
2018-03-01T12:07:42.444Z,1003.72
2018-03-01T12:08:42.444Z,1003.60
2018-03-01T12:09:42.421Z,1003.60
2018-03-01T12:10:42.413Z,1003.55